Time;durP1;ratioP1;P1;durP2;ratioP2;P2;SDS_P1;SDS_P2;PMS_P1;PMS_P2;Temp;Humidity;BMP_temperature;BMP_pressure;BME280_temperature;BME280_humidity;BME280_pressure;Samples;Min_cycle;Max_cycle;Signal;HPM_P1;HPM_P2
2022/12/27 00:02:02;;;;;;;0.10;0.10;;;2.30;99.90;;;;;;5159259;27;20037;-80
2022/12/27 00:04:28;;;;;;;0.13;0.13;;;2.40;99.90;;;;;;5158147;27;20099;-79
2022/12/27 00:06:54;;;;;;;0.00;0.00;;;2.40;99.90;;;;;;5159446;27;20529;-80
2022/12/27 00:09:19;;;;;;;0.00;0.00;;;2.40;99.90;;;;;;5161646;27;20070;-80
2022/12/27 00:11:45;;;;;;;0.00;0.00;;;2.40;99.90;;;;;;5160060;27;20038;-80
2022/12/27 00:14:11;;;;;;;0.20;0.20;;;2.40;99.90;;;;;;5158826;27;20043;-78
2022/12/27 00:16:37;;;;;;;0.10;0.10;;;2.40;99.90;;;;;;5156228;27;20068;-79
2022/12/27 00:19:04;;;;;;;0.00;0.00;;;2.40;99.90;;;;;;5157519;27;20034;-79
2022/12/27 00:21:30;;;;;;;0.73;0.73;;;2.30;99.90;;;;;;5157813;27;20047;-79
2022/12/27 00:23:56;;;;;;;0.00;0.00;;;2.30;99.90;;;;;;5158068;27;20104;-79
2022/12/27 00:26:25;;;;;;;0.00;0.00;;;2.50;99.90;;;;;;5158660;27;20046;-79
2022/12/27 00:28:51;;;;;;;0.00;0.00;;;2.50;99.90;;;;;;5160520;27;20038;-79
2022/12/27 00:31:18;;;;;;;7.72;0.40;;;2.50;99.90;;;;;;5161025;27;20485;-79
2022/12/27 00:33:45;;;;;;;0.15;0.15;;;2.40;99.90;;;;;;5161857;27;20039;-80
2022/12/27 00:36:14;;;;;;;5.68;1.25;;;2.40;99.90;;;;;;5160300;27;20031;-80
2022/12/27 00:38:40;;;;;;;0.10;0.10;;;2.50;99.90;;;;;;5159498;27;20034;-79
2022/12/27 00:41:06;;;;;;;0.00;0.00;;;2.50;99.90;;;;;;5160160;27;20046;-79
2022/12/27 00:43:32;;;;;;;0.10;0.10;;;2.50;99.90;;;;;;5160927;27;20042;-79
2022/12/27 00:45:58;;;;;;;0.00;0.00;;;2.50;99.90;;;;;;5160263;27;20046;-80
2022/12/27 00:48:24;;;;;;;0.00;0.00;;;2.60;99.90;;;;;;5160366;27;20050;-80
2022/12/27 00:50:49;;;;;;;0.13;0.13;;;2.70;99.90;;;;;;5161006;27;20039;-80
2022/12/27 00:53:15;;;;;;;0.00;0.00;;;2.80;99.90;;;;;;5160744;27;20109;-79
2022/12/27 00:55:42;;;;;;;0.65;0.57;;;3.00;99.90;;;;;;5159523;27;20038;-80
2022/12/27 00:58:08;;;;;;;0.30;0.30;;;3.00;99.90;;;;;;5160535;27;20103;-80
2022/12/27 01:00:34;;;;;;;0.10;0.10;;;3.10;99.90;;;;;;5160034;27;20046;-80
2022/12/27 01:02:59;;;;;;;0.68;0.68;;;3.20;99.90;;;;;;5159576;27;20045;-79
2022/12/27 01:05:25;;;;;;;0.00;0.00;;;3.20;99.90;;;;;;5160190;27;20070;-79
2022/12/27 01:07:50;;;;;;;0.00;0.00;;;3.30;99.90;;;;;;5160027;27;20552;-80
2022/12/27 01:10:16;;;;;;;0.00;0.00;;;3.20;99.90;;;;;;5159686;27;20098;-79
2022/12/27 01:12:42;;;;;;;30.70;0.57;;;3.30;99.90;;;;;;5151895;27;20485;-80
2022/12/27 01:15:08;;;;;;;0.33;0.33;;;3.40;99.90;;;;;;5160062;27;20034;-80
2022/12/27 01:17:34;;;;;;;0.00;0.00;;;3.40;99.90;;;;;;5159895;27;20114;-79
2022/12/27 01:20:00;;;;;;;0.00;0.00;;;3.40;99.90;;;;;;5160795;27;20069;-78
2022/12/27 01:22:26;;;;;;;0.00;0.00;;;3.40;99.90;;;;;;5159902;27;20042;-79
2022/12/27 01:24:51;;;;;;;0.00;0.00;;;3.50;99.90;;;;;;5160695;27;20412;-80
2022/12/27 01:27:17;;;;;;;0.00;0.00;;;3.60;99.90;;;;;;5162906;27;20049;-80
2022/12/27 01:29:43;;;;;;;2.72;1.55;;;3.60;99.90;;;;;;5164138;27;20053;-79
2022/12/27 01:32:08;;;;;;;0.10;0.10;;;3.70;99.90;;;;;;5164697;27;20039;-80
2022/12/27 01:34:34;;;;;;;0.00;0.00;;;3.80;99.90;;;;;;5164081;27;20397;-80
2022/12/27 01:37:00;;;;;;;0.75;0.75;;;3.90;99.90;;;;;;5163711;27;20121;-80
2022/12/27 01:39:25;;;;;;;0.00;0.00;;;3.90;99.90;;;;;;5143233;27;20478;-79
2022/12/27 01:44:38;;;;;;;0.00;0.00;;;4.00;99.90;;;;;;5142770;27;20047;-79
2022/12/27 01:47:10;;;;;;;0.00;0.00;;;4.10;99.90;;;;;;5143435;27;20110;-80
2022/12/27 01:49:40;;;;;;;0.10;0.10;;;4.20;99.90;;;;;;5143634;27;20039;-80
2022/12/27 01:52:09;;;;;;;0.40;0.40;;;4.20;99.90;;;;;;5143896;27;20060;-80
2022/12/27 01:54:35;;;;;;;3.65;1.45;;;4.20;99.90;;;;;;5164543;27;20057;-80
2022/12/27 01:57:01;;;;;;;1.35;0.95;;;4.10;99.90;;;;;;5162640;27;20536;-80
2022/12/27 01:59:27;;;;;;;14.05;1.45;;;4.10;99.90;;;;;;5162950;27;20404;-79
2022/12/27 02:01:52;;;;;;;0.00;0.00;;;4.10;99.90;;;;;;5163347;27;20046;-80
2022/12/27 02:04:22;;;;;;;1.95;1.85;;;4.00;99.90;;;;;;5163086;27;20503;-79
2022/12/27 02:06:50;;;;;;;0.55;0.55;;;4.00;99.90;;;;;;5163680;27;20050;-80
2022/12/27 02:09:28;;;;;;;0.00;0.00;;;4.00;99.90;;;;;;5163276;27;20115;-79
2022/12/27 02:11:56;;;;;;;0.55;0.55;;;4.00;99.90;;;;;;5162793;27;20533;-79
2022/12/27 02:14:31;;;;;;;0.00;0.00;;;4.00;99.90;;;;;;5161715;27;20043;-80
2022/12/27 02:17:03;;;;;;;0.00;0.00;;;4.00;99.90;;;;;;5162147;27;20046;-80
2022/12/27 02:19:40;;;;;;;0.00;0.00;;;4.10;99.90;;;;;;5163473;27;20046;-80
2022/12/27 02:22:30;;;;;;;0.00;0.00;;;4.00;99.90;;;;;;5142072;27;20047;-79
2022/12/27 02:25:21;;;;;;;0.10;0.10;;;4.10;99.90;;;;;;5163983;27;20056;-80
2022/12/27 02:28:29;;;;;;;0.30;0.30;;;4.10;99.90;;;;;;5164300;27;20034;-80
2022/12/27 02:31:03;;;;;;;1.02;0.95;;;4.30;99.90;;;;;;5142878;27;20043;-80
2022/12/27 02:33:33;;;;;;;5.20;0.87;;;4.00;99.90;;;;;;5153933;27;20074;-79
2022/12/27 02:36:06;;;;;;;0.43;0.43;;;3.80;99.90;;;;;;5162314;27;20047;-79
2022/12/27 02:38:36;;;;;;;0.00;0.00;;;3.80;99.90;;;;;;5160863;27;20043;-79
2022/12/27 02:55:21;;;;;;;0.10;0.10;;;3.70;99.90;;;;;;5160546;27;20102;-79
2022/12/27 02:58:04;;;;;;;0.00;0.00;;;3.80;99.90;;;;;;5160487;27;20047;-79
2022/12/27 03:03:25;;;;;;;0.00;0.00;;;4.00;99.90;;;;;;5159924;27;20128;-81
2022/12/27 03:15:55;;;;;;;0.00;0.00;;;3.90;99.90;;;;;;5122408;27;20039;-80
2022/12/27 03:18:27;;;;;;;0.00;0.00;;;3.90;99.90;;;;;;5160978;27;20060;-80
2022/12/27 03:26:31;;;;;;;0.05;0.05;;;3.60;99.90;;;;;;5139393;27;20691;-79
2022/12/27 03:34:41;;;;;;;0.03;0.03;;;3.40;99.90;;;;;;5142537;27;20075;-79
2022/12/27 03:40:05;;;;;;;1.15;1.05;;;3.50;99.90;;;;;;5159279;27;20046;-79
2022/12/27 03:46:32;;;;;;;0.00;0.00;;;3.50;99.90;;;;;;5159758;27;20057;-79
2022/12/27 03:48:11;;;;;;;0.00;0.00;;;3.50;99.90;;;;;;5158872;27;20516;-79
2022/12/27 03:50:53;;;;;;;0.30;0.30;;;3.50;99.90;;;;;;5158502;27;20058;-79
2022/12/27 03:53:31;;;;;;;1.70;1.10;;;3.60;99.90;;;;;;5158372;27;20038;-79
2022/12/27 03:55:57;;;;;;;0.20;0.20;;;3.60;99.90;;;;;;5159094;27;20078;-79
2022/12/27 03:58:22;;;;;;;0.00;0.00;;;3.60;99.90;;;;;;5158465;27;20039;-79
2022/12/27 04:00:48;;;;;;;0.00;0.00;;;3.60;99.90;;;;;;5159704;27;20507;-79
2022/12/27 04:03:14;;;;;;;0.00;0.00;;;3.70;99.90;;;;;;5158657;27;20049;-79
2022/12/27 04:05:39;;;;;;;0.00;0.00;;;3.70;99.90;;;;;;5158630;27;20038;-79
2022/12/27 04:35:29;;;;;;;0.10;0.10;;;3.50;99.90;;;;;;5139784;27;20054;-79
2022/12/27 04:37:55;;;;;;;0.90;0.90;;;3.40;99.90;;;;;;5157190;27;20118;-79
2022/12/27 04:57:03;;;;;;;0.10;0.10;;;3.00;99.90;;;;;;5156701;27;20046;-79
2022/12/27 05:02:15;;;;;;;0.30;0.30;;;3.00;99.90;;;;;;5155893;27;20039;-79
2022/12/27 05:04:41;;;;;;;1.30;1.25;;;3.20;99.90;;;;;;5156790;27;20046;-79
2022/12/27 05:15:27;;;;;;;0.13;0.10;;;3.50;99.90;;;;;;5156372;27;20047;-79
2022/12/27 05:17:53;;;;;;;0.00;0.00;;;3.50;99.90;;;;;;5155639;27;20098;-79
2022/12/27 05:20:18;;;;;;;0.00;0.00;;;3.50;99.90;;;;;;5156204;27;20038;-79
2022/12/27 05:25:34;;;;;;;0.10;0.10;;;3.40;99.90;;;;;;5136307;28;20043;-79
2022/12/27 05:28:01;;;;;;;0.00;0.00;;;3.50;99.90;;;;;;5136692;28;20054;-79
2022/12/27 05:30:27;;;;;;;3.10;1.17;;;3.50;99.90;;;;;;5136168;28;20088;-79
2022/12/27 05:32:55;;;;;;;0.30;0.30;;;3.50;99.90;;;;;;5136829;28;20035;-79
2022/12/27 05:35:21;;;;;;;0.00;0.00;;;3.40;99.90;;;;;;5156153;27;20031;-79
2022/12/27 05:37:47;;;;;;;0.00;0.00;;;3.30;99.90;;;;;;5158893;27;20119;-79
2022/12/27 05:40:13;;;;;;;0.20;0.20;;;3.20;99.90;;;;;;5159060;27;20048;-80
2022/12/27 05:42:38;;;;;;;0.00;0.00;;;3.20;99.90;;;;;;5158951;27;20043;-79
2022/12/27 05:45:04;;;;;;;0.00;0.00;;;3.10;99.90;;;;;;5158322;27;20085;-79
2022/12/27 05:47:30;;;;;;;0.00;0.00;;;3.10;99.90;;;;;;5156988;27;20412;-79
2022/12/27 05:49:56;;;;;;;0.10;0.10;;;3.00;99.90;;;;;;5157576;27;20114;-79
2022/12/27 05:52:22;;;;;;;0.00;0.00;;;2.90;99.90;;;;;;5157000;27;20047;-79
2022/12/27 05:54:48;;;;;;;0.05;0.05;;;2.80;99.90;;;;;;5157316;27;20042;-80
2022/12/27 05:57:13;;;;;;;0.00;0.00;;;2.70;99.90;;;;;;5156403;27;20039;-79
2022/12/27 05:59:39;;;;;;;0.10;0.10;;;2.60;99.90;;;;;;5157514;27;20496;-79
2022/12/27 06:02:05;;;;;;;0.00;0.00;;;2.60;99.90;;;;;;5157142;27;20138;-79
2022/12/27 06:04:30;;;;;;;0.00;0.00;;;2.60;99.90;;;;;;5157144;27;20035;-79
2022/12/27 06:06:58;;;;;;;0.00;0.00;;;2.60;99.90;;;;;;5156649;27;20070;-79
2022/12/27 06:09:24;;;;;;;0.52;0.52;;;2.70;99.90;;;;;;5157083;27;20074;-79
2022/12/27 06:11:49;;;;;;;0.00;0.00;;;2.70;99.90;;;;;;5157157;27;20385;-79
2022/12/27 06:14:15;;;;;;;0.00;0.00;;;2.60;99.90;;;;;;5158663;27;20031;-79
2022/12/27 06:16:40;;;;;;;0.10;0.10;;;2.70;99.90;;;;;;5160479;27;20038;-78
2022/12/27 06:19:06;;;;;;;0.75;0.30;;;2.50;99.90;;;;;;5160837;27;20039;-79
2022/12/27 06:21:31;;;;;;;0.00;0.00;;;2.50;99.90;;;;;;5160737;27;20069;-79
2022/12/27 06:23:57;;;;;;;0.75;0.75;;;2.50;99.90;;;;;;5160954;27;20046;-79
2022/12/27 06:26:25;;;;;;;1.43;0.70;;;2.40;99.90;;;;;;5160929;27;20045;-79
2022/12/27 06:28:51;;;;;;;0.00;0.00;;;2.40;99.90;;;;;;5160141;27;20489;-79
2022/12/27 06:31:18;;;;;;;0.10;0.10;;;2.40;99.90;;;;;;5160042;27;20038;-79
2022/12/27 06:33:45;;;;;;;0.00;0.00;;;2.20;99.90;;;;;;5160240;27;20045;-79
2022/12/27 06:36:13;;;;;;;0.60;0.60;;;2.20;99.90;;;;;;5160782;27;20035;-79
2022/12/27 06:38:39;;;;;;;0.00;0.00;;;2.20;99.90;;;;;;5155838;27;20042;-79
2022/12/27 06:41:08;;;;;;;0.47;0.47;;;2.20;99.90;;;;;;5160097;27;20034;-79
2022/12/27 06:43:34;;;;;;;0.00;0.00;;;2.10;99.90;;;;;;5158268;27;20053;-79
2022/12/27 06:46:04;;;;;;;0.00;0.00;;;2.10;99.90;;;;;;5157955;27;20466;-79
2022/12/27 06:48:30;;;;;;;3.10;0.63;;;2.10;99.90;;;;;;5157586;27;20481;-79
2022/12/27 06:50:56;;;;;;;0.77;0.43;;;2.20;99.90;;;;;;5157992;27;20046;-79
2022/12/27 06:53:21;;;;;;;0.00;0.00;;;2.20;99.90;;;;;;5157389;27;20485;-79
2022/12/27 06:55:47;;;;;;;0.25;0.25;;;2.30;99.90;;;;;;5157816;27;20549;-79
2022/12/27 06:58:13;;;;;;;0.13;0.13;;;2.20;99.90;;;;;;5157705;27;20046;-79
2022/12/27 07:00:40;;;;;;;0.10;0.10;;;2.20;99.90;;;;;;5157615;27;20047;-79
2022/12/27 07:03:06;;;;;;;2.65;1.60;;;2.20;99.90;;;;;;5157086;27;20098;-79
2022/12/27 07:05:35;;;;;;;0.00;0.00;;;2.20;99.90;;;;;;5157787;27;20046;-79
2022/12/27 07:08:00;;;;;;;0.67;0.50;;;2.10;99.90;;;;;;5156265;27;20561;-79
2022/12/27 07:10:26;;;;;;;0.10;0.10;;;2.10;99.90;;;;;;5156903;27;20043;-79
2022/12/27 07:12:51;;;;;;;0.00;0.00;;;2.10;99.90;;;;;;5156565;27;20409;-79
2022/12/27 07:15:17;;;;;;;0.00;0.00;;;2.00;99.90;;;;;;5156354;27;20062;-78
2022/12/27 07:17:42;;;;;;;0.00;0.00;;;1.90;99.90;;;;;;5156019;27;20042;-79
2022/12/27 07:20:08;;;;;;;0.00;0.00;;;1.90;99.90;;;;;;5157547;27;20507;-79
2022/12/27 07:22:34;;;;;;;0.37;0.37;;;1.90;99.90;;;;;;5156538;27;20034;-79
2022/12/27 07:25:00;;;;;;;0.28;0.28;;;2.00;99.90;;;;;;5156132;27;20519;-79
2022/12/27 07:27:25;;;;;;;0.00;0.00;;;2.00;99.90;;;;;;5156701;27;20095;-79
2022/12/27 07:29:51;;;;;;;0.10;0.10;;;2.20;99.90;;;;;;5156524;27;20073;-79
2022/12/27 07:32:16;;;;;;;0.10;0.10;;;2.20;99.90;;;;;;5156340;27;20406;-79
2022/12/27 07:34:42;;;;;;;0.63;0.17;;;2.30;99.90;;;;;;5155472;27;20058;-79
2022/12/27 07:37:08;;;;;;;0.00;0.00;;;2.50;99.90;;;;;;5157152;27;20035;-79
2022/12/27 07:39:34;;;;;;;0.10;0.10;;;2.50;99.90;;;;;;5156400;27;20038;-79
2022/12/27 07:41:59;;;;;;;0.10;0.10;;;2.60;99.90;;;;;;5157151;27;20038;-79
2022/12/27 07:44:25;;;;;;;0.38;0.35;;;2.60;99.90;;;;;;5156676;27;20500;-79
2022/12/27 07:46:51;;;;;;;0.00;0.00;;;2.70;99.90;;;;;;5156270;27;20050;-79
2022/12/27 07:49:17;;;;;;;0.00;0.00;;;2.70;99.90;;;;;;5155730;27;20370;-79
2022/12/27 07:51:42;;;;;;;0.00;0.00;;;2.70;99.90;;;;;;5156339;27;20095;-79
2022/12/27 07:54:08;;;;;;;0.00;0.00;;;2.80;99.90;;;;;;5156041;27;20077;-79
2022/12/27 07:56:33;;;;;;;0.05;0.05;;;2.70;99.90;;;;;;5155617;27;20118;-79
2022/12/27 07:59:00;;;;;;;0.90;0.57;;;2.70;99.90;;;;;;5154701;27;20098;-79
2022/12/27 08:01:28;;;;;;;2.08;1.00;;;2.80;99.90;;;;;;5153430;27;20078;-79
2022/12/27 08:03:54;;;;;;;1.07;1.03;;;2.80;99.90;;;;;;5152081;27;20437;-79
2022/12/27 08:06:32;;;;;;;0.00;0.00;;;2.70;99.90;;;;;;5151889;27;20039;-79
2022/12/27 08:09:01;;;;;;;0.00;0.00;;;2.70;99.90;;;;;;5150269;27;20077;-79
2022/12/27 08:11:27;;;;;;;0.00;0.00;;;2.70;99.90;;;;;;5152007;27;20087;-79
2022/12/27 08:13:52;;;;;;;0.37;0.37;;;2.90;99.90;;;;;;5151405;27;20038;-79
2022/12/27 08:16:21;;;;;;;0.20;0.20;;;3.00;99.90;;;;;;5151184;27;20515;-79
2022/12/27 08:18:47;;;;;;;0.10;0.10;;;3.00;99.90;;;;;;5154888;27;20080;-79
2022/12/27 08:21:12;;;;;;;16.15;0.65;;;2.90;99.90;;;;;;5155212;27;20039;-79
2022/12/27 08:23:38;;;;;;;0.30;0.30;;;2.80;99.90;;;;;;5155184;27;20035;-79
2022/12/27 08:26:04;;;;;;;0.00;0.00;;;2.70;99.90;;;;;;5155399;27;20046;-79
2022/12/27 08:28:30;;;;;;;0.00;0.00;;;2.70;99.90;;;;;;5153775;27;20039;-79
2022/12/27 08:30:57;;;;;;;0.00;0.00;;;2.70;99.90;;;;;;5147439;27;20099;-79
2022/12/27 08:33:23;;;;;;;5.18;1.00;;;2.60;99.90;;;;;;5148565;27;20066;-79
2022/12/27 08:35:49;;;;;;;0.00;0.00;;;2.60;99.90;;;;;;5154624;27;20374;-79
2022/12/27 08:38:15;;;;;;;0.00;0.00;;;2.60;99.90;;;;;;5154078;27;20050;-79
2022/12/27 08:40:42;;;;;;;0.68;0.68;;;2.50;99.90;;;;;;5150651;27;20568;-79
2022/12/27 08:43:08;;;;;;;0.00;0.00;;;2.50;99.90;;;;;;5154213;27;20328;-79
2022/12/27 08:45:35;;;;;;;1.23;0.77;;;2.60;99.90;;;;;;5154594;27;20477;-79
2022/12/27 08:48:01;;;;;;;0.00;0.00;;;2.60;99.90;;;;;;5154603;27;20038;-80
2022/12/27 08:50:28;;;;;;;0.00;0.00;;;2.60;99.90;;;;;;5155381;27;20070;-79
2022/12/27 08:52:58;;;;;;;0.00;0.00;;;2.70;99.90;;;;;;5157209;27;20122;-80
2022/12/27 08:55:25;;;;;;;0.00;0.00;;;2.60;99.90;;;;;;5154527;27;20064;-80
2022/12/27 08:57:55;;;;;;;0.93;0.45;;;2.70;99.90;;;;;;5154523;27;20039;-79
2022/12/27 09:00:21;;;;;;;0.00;0.00;;;2.70;99.90;;;;;;5151564;27;20106;-79
2022/12/27 09:02:46;;;;;;;0.00;0.00;;;2.70;99.90;;;;;;5155144;27;20477;-79
2022/12/27 09:05:12;;;;;;;0.47;0.47;;;2.80;99.90;;;;;;5154342;27;20091;-79
2022/12/27 09:07:37;;;;;;;0.00;0.00;;;2.70;99.90;;;;;;5154748;27;20497;-79
2022/12/27 09:10:04;;;;;;;0.55;0.55;;;2.70;99.90;;;;;;5154209;27;20065;-79
2022/12/27 09:12:31;;;;;;;0.10;0.10;;;2.80;99.90;;;;;;5155595;27;20106;-79
2022/12/27 09:14:58;;;;;;;0.00;0.00;;;2.80;99.90;;;;;;5154857;27;20042;-79
2022/12/27 09:17:24;;;;;;;0.95;0.75;;;2.90;99.90;;;;;;5155916;27;20042;-80
2022/12/27 09:19:49;;;;;;;0.20;0.20;;;3.00;99.90;;;;;;5154882;27;20030;-80
2022/12/27 09:22:15;;;;;;;0.30;0.30;;;3.10;99.90;;;;;;5155740;27;20430;-79
2022/12/27 09:24:40;;;;;;;0.40;0.40;;;3.10;99.90;;;;;;5155902;27;20053;-79
2022/12/27 09:27:06;;;;;;;0.20;0.20;;;3.30;99.90;;;;;;5156249;27;20027;-80
2022/12/27 09:29:32;;;;;;;0.20;0.20;;;3.30;99.90;;;;;;5155850;27;20061;-79
2022/12/27 09:31:57;;;;;;;0.00;0.00;;;3.30;99.90;;;;;;5155613;27;20077;-80
2022/12/27 09:34:23;;;;;;;0.00;0.00;;;3.30;99.90;;;;;;5157483;27;20043;-80
2022/12/27 09:36:48;;;;;;;1.48;1.30;;;3.30;99.90;;;;;;5156782;27;20066;-79
2022/12/27 09:39:16;;;;;;;0.00;0.00;;;3.30;99.90;;;;;;5156242;27;20126;-79
2022/12/27 09:41:47;;;;;;;0.00;0.00;;;3.20;99.90;;;;;;5150929;27;20089;-80
2022/12/27 09:44:16;;;;;;;0.00;0.00;;;3.20;99.90;;;;;;5152352;27;20034;-79
2022/12/27 09:46:51;;;;;;;0.10;0.10;;;3.30;99.90;;;;;;5150275;27;20047;-80
2022/12/27 09:49:25;;;;;;;0.00;0.00;;;3.40;99.90;;;;;;5160568;27;20416;-80
2022/12/27 09:51:57;;;;;;;0.00;0.00;;;3.40;99.90;;;;;;5158386;27;20446;-80
2022/12/27 09:54:51;;;;;;;0.52;0.52;;;3.50;99.90;;;;;;5137639;27;20038;-79
2022/12/27 09:57:27;;;;;;;0.10;0.10;;;3.50;99.90;;;;;;5159724;27;20046;-79
2022/12/27 09:59:57;;;;;;;0.00;0.00;;;3.60;99.90;;;;;;5159323;27;20126;-79
2022/12/27 10:02:25;;;;;;;0.15;0.15;;;3.60;99.90;;;;;;5159413;27;20573;-80
2022/12/27 10:04:52;;;;;;;0.05;0.05;;;3.70;99.90;;;;;;5156037;27;20031;-80
2022/12/27 10:07:35;;;;;;;0.00;0.00;;;3.70;99.90;;;;;;5159553;27;20046;-80
2022/12/27 10:10:11;;;;;;;0.00;0.00;;;3.80;99.90;;;;;;5158164;27;20349;-80
2022/12/27 10:12:48;;;;;;;0.00;0.00;;;3.80;99.90;;;;;;5158736;27;20042;-80
2022/12/27 10:15:49;;;;;;;2.75;1.08;;;3.90;99.90;;;;;;5158639;27;20042;-80
2022/12/27 10:18:39;;;;;;;0.00;0.00;;;4.00;99.90;;;;;;5158927;27;20035;-80
2022/12/27 10:21:15;;;;;;;0.50;0.50;;;4.10;99.90;;;;;;5160371;27;20039;-80
2022/12/27 10:23:45;;;;;;;0.00;0.00;;;4.10;99.90;;;;;;5160211;27;20076;-80
2022/12/27 10:26:14;;;;;;;0.77;0.52;;;4.10;99.90;;;;;;5159035;27;20572;-80
2022/12/27 10:28:43;;;;;;;0.40;0.40;;;4.20;99.90;;;;;;5158646;27;20046;-79
2022/12/27 10:31:15;;;;;;;0.80;0.70;;;4.20;99.90;;;;;;5159392;27;20076;-79
2022/12/27 10:33:41;;;;;;;0.00;0.00;;;4.30;99.90;;;;;;5159142;27;20405;-80
2022/12/27 10:36:11;;;;;;;3.30;0.90;;;4.40;99.90;;;;;;5158115;27;20042;-79
2022/12/27 10:38:37;;;;;;;0.52;0.52;;;4.50;99.90;;;;;;5159032;27;20050;-80
2022/12/27 10:41:26;;;;;;;0.22;0.22;;;4.60;99.90;;;;;;5158764;27;20482;-80
2022/12/27 10:43:53;;;;;;;0.00;0.00;;;4.80;99.90;;;;;;5139331;27;20053;-80
2022/12/27 10:46:28;;;;;;;0.00;0.00;;;5.00;99.90;;;;;;5159543;27;20413;-80
2022/12/27 10:48:54;;;;;;;0.00;0.00;;;5.10;99.90;;;;;;5159875;27;20037;-80
2022/12/27 10:51:22;;;;;;;0.00;0.00;;;5.20;99.90;;;;;;5160379;27;20047;-80
2022/12/27 10:53:47;;;;;;;1.20;0.43;;;5.20;99.90;;;;;;5160067;27;20050;-80
2022/12/27 10:56:40;;;;;;;0.43;0.43;;;5.30;99.90;;;;;;5160371;27;20405;-80
2022/12/27 10:59:27;;;;;;;0.28;0.28;;;5.30;99.90;;;;;;5146675;27;20050;-80
2022/12/27 11:01:58;;;;;;;0.20;0.20;;;5.30;99.90;;;;;;5159961;27;20049;-80
2022/12/27 11:04:24;;;;;;;0.90;0.45;;;5.30;99.90;;;;;;5160786;27;20132;-80
2022/12/27 11:06:58;;;;;;;0.63;0.63;;;5.40;99.90;;;;;;5159869;27;20042;-80
2022/12/27 11:09:32;;;;;;;0.43;0.43;;;5.40;99.90;;;;;;5159140;27;20047;-80
2022/12/27 11:12:24;;;;;;;0.88;0.88;;;5.40;99.90;;;;;;5160278;27;20043;-80
2022/12/27 11:15:18;;;;;;;0.00;0.00;;;5.40;99.90;;;;;;5159792;27;20054;-79
2022/12/27 11:17:50;;;;;;;0.00;0.00;;;5.20;99.90;;;;;;5158785;27;20046;-79
2022/12/27 11:20:18;;;;;;;0.32;0.25;;;5.10;99.90;;;;;;5155814;27;20635;-79
2022/12/27 11:22:54;;;;;;;0.43;0.43;;;5.10;99.90;;;;;;5156260;27;20408;-79
2022/12/27 11:25:21;;;;;;;0.40;0.20;;;5.20;99.90;;;;;;5155881;27;20034;-79
2022/12/27 11:27:53;;;;;;;0.47;0.47;;;5.30;99.90;;;;;;5156047;27;20049;-79
2022/12/27 11:30:40;;;;;;;0.73;0.73;;;5.40;99.90;;;;;;5156023;27;20544;-79
2022/12/27 11:33:32;;;;;;;0.73;0.45;;;5.60;99.90;;;;;;5156341;27;20057;-79
2022/12/27 11:35:59;;;;;;;1.35;0.57;;;5.90;99.90;;;;;;5142066;27;20408;-79
2022/12/27 11:38:30;;;;;;;0.00;0.00;;;6.00;99.90;;;;;;5155515;27;20050;-79
2022/12/27 11:41:02;;;;;;;8.20;1.65;;;6.20;99.90;;;;;;5156721;27;20043;-79
2022/12/27 11:43:36;;;;;;;0.00;0.00;;;6.30;99.90;;;;;;5159036;27;20083;-80
2022/12/27 11:46:07;;;;;;;0.10;0.10;;;6.10;99.90;;;;;;5158444;27;20055;-80
2022/12/27 11:48:39;;;;;;;0.20;0.20;;;5.90;32.40;;;;;;5159007;27;20054;-80
2022/12/27 11:51:36;;;;;;;0.13;0.13;;;5.70;34.00;;;;;;5158903;27;20026;-81
2022/12/27 11:54:28;;;;;;;0.63;0.45;;;5.60;99.90;;;;;;5158552;27;20051;-80
2022/12/27 11:57:17;;;;;;;0.55;0.55;;;5.60;99.90;;;;;;5140283;27;20051;-80
2022/12/27 11:59:51;;;;;;;0.52;0.47;;;5.60;99.90;;;;;;5158854;27;20053;-80
2022/12/27 12:02:20;;;;;;;0.10;0.10;;;6.20;99.90;;;;;;5139842;27;20054;-80
2022/12/27 12:05:20;;;;;;;0.32;0.30;;;5.60;99.90;;;;;;5157335;27;20454;-80
2022/12/27 12:08:12;;;;;;;0.30;0.25;;;5.60;99.90;;;;;;5157461;27;20050;-80
2022/12/27 12:10:59;;;;;;;9.15;1.60;;;5.50;99.90;;;;;;5159101;27;20043;-80
2022/12/27 12:14:01;;;;;;;0.00;0.00;;;5.60;99.90;;;;;;5158451;27;20094;-80
2022/12/27 12:16:51;;;;;;;0.00;0.00;;;5.80;99.90;;;;;;5158657;27;20074;-80
2022/12/27 12:19:53;;;;;;;0.35;0.32;;;5.80;92.20;;;;;;5158776;27;20047;-80
2022/12/27 12:22:41;;;;;;;0.00;0.00;;;5.70;99.90;;;;;;5159841;27;20050;-80
2022/12/27 12:25:51;;;;;;;0.00;0.00;;;5.60;99.90;;;;;;5159189;27;20131;-80
2022/12/27 12:28:32;;;;;;;0.45;0.45;;;5.70;99.90;;;;;;5160168;27;20043;-80
2022/12/27 12:31:25;;;;;;;2.00;1.35;;;5.80;99.90;;;;;;5159500;27;20047;-80
2022/12/27 12:34:14;;;;;;;0.43;0.43;;;6.00;99.90;;;;;;5158465;27;20050;-80
2022/12/27 12:36:47;;;;;;;0.00;0.00;;;6.10;99.90;;;;;;5158489;27;20110;-83
2022/12/27 12:39:31;;;;;;;0.03;0.03;;;6.10;99.90;;;;;;5157566;27;20066;-80
2022/12/27 12:42:24;;;;;;;0.30;0.30;;;6.00;99.90;;;;;;5158583;27;20378;-80
2022/12/27 12:45:39;;;;;;;0.00;0.00;;;5.90;99.90;;;;;;5139615;27;20094;-80
2022/12/27 12:48:23;;;;;;;0.00;0.00;;;5.80;99.90;;;;;;5109111;27;20489;-81
2022/12/27 12:51:20;;;;;;;0.00;0.00;;;5.90;99.90;;;;;;5157277;27;20074;-80
2022/12/27 12:54:27;;;;;;;0.00;0.00;;;5.90;35.00;;;;;;5157450;27;20416;-80
2022/12/27 12:57:21;;;;;;;0.00;0.00;;;5.80;99.90;;;;;;5122200;27;20043;-80
2022/12/27 13:00:20;;;;;;;1.35;0.45;;;5.80;99.90;;;;;;5157099;27;20069;-80
2022/12/27 13:03:15;;;;;;;0.52;0.32;;;5.70;99.90;;;;;;5157407;27;20047;-80
2022/12/27 13:06:32;;;;;;;0.20;0.20;;;5.70;99.90;;;;;;5157771;27;20050;-80
2022/12/27 13:09:02;;;;;;;2.53;1.65;;;5.80;99.90;;;;;;5114128;27;20046;-80
2022/12/27 13:11:34;;;;;;;2.83;0.65;;;5.70;99.90;;;;;;5158072;27;20058;-80
2022/12/27 13:14:16;;;;;;;0.03;0.03;;;5.70;99.90;;;;;;5146995;27;20042;-80
2022/12/27 13:16:57;;;;;;;0.30;0.30;;;5.80;99.90;;;;;;5157125;27;20042;-80
2022/12/27 13:19:33;;;;;;;0.00;0.00;;;5.80;99.90;;;;;;5157732;27;20504;-80
2022/12/27 13:22:18;;;;;;;3.47;1.10;;;5.80;99.90;;;;;;5158288;27;20047;-80
2022/12/27 13:25:16;;;;;;;0.98;0.43;;;5.90;99.90;;;;;;5162370;27;20099;-80
2022/12/27 13:27:54;;;;;;;0.15;0.15;;;5.90;99.90;;;;;;5162442;27;20057;-80
2022/12/27 13:30:19;;;;;;;0.10;0.10;;;5.90;99.90;;;;;;5145543;27;20050;-80
2022/12/27 13:33:07;;;;;;;0.95;0.63;;;6.00;99.90;;;;;;5162515;27;20568;-79
2022/12/27 13:35:38;;;;;;;0.25;0.25;;;6.00;99.90;;;;;;5162644;27;20430;-80
2022/12/27 13:38:34;;;;;;;0.32;0.32;;;6.00;99.90;;;;;;5161285;27;20050;-80
2022/12/27 13:41:19;;;;;;;2.10;1.35;;;6.00;99.90;;;;;;5140983;27;20043;-81
2022/12/27 13:44:07;;;;;;;0.03;0.03;;;6.00;99.90;;;;;;5149624;27;20051;-81
2022/12/27 13:46:52;;;;;;;0.10;0.10;;;6.00;99.90;;;;;;5161884;27;20533;-80
2022/12/27 13:49:36;;;;;;;0.30;0.25;;;5.90;99.90;;;;;;5161847;27;20064;-80
2022/12/27 13:52:37;;;;;;;1.58;1.48;;;5.80;99.90;;;;;;5142724;27;20047;-80
2022/12/27 13:55:40;;;;;;;0.35;0.35;;;5.90;99.90;;;;;;5161566;27;20046;-80
2022/12/27 13:58:59;;;;;;;0.52;0.25;;;5.70;99.90;;;;;;5161359;27;20137;-80
2022/12/27 14:01:27;;;;;;;2.85;1.50;;;5.70;99.90;;;;;;5056224;28;20124;-80
2022/12/27 14:04:05;;;;;;;0.10;0.10;;;5.80;99.90;;;;;;5132918;27;20054;-80
2022/12/27 14:06:47;;;;;;;0.00;0.00;;;5.60;99.90;;;;;;5161499;27;20066;-80
2022/12/27 14:09:37;;;;;;;0.52;0.52;;;5.60;99.90;;;;;;5161791;27;20043;-80
2022/12/27 14:12:40;;;;;;;0.20;0.20;;;5.50;99.90;;;;;;5160934;27;20050;-80
2022/12/27 14:15:11;;;;;;;1.40;0.60;;;5.60;99.90;;;;;;5161773;27;20068;-80
2022/12/27 14:18:19;;;;;;;0.25;0.25;;;5.70;99.90;;;;;;5162133;27;20144;-80
2022/12/27 14:21:06;;;;;;;3.65;1.00;;;5.80;99.90;;;;;;5160778;27;20062;-81
2022/12/27 14:23:35;;;;;;;0.65;0.65;;;5.90;99.90;;;;;;5146642;27;20065;-80
2022/12/27 14:26:00;;;;;;;0.08;0.08;;;6.00;99.90;;;;;;5161264;27;20046;-81
2022/12/27 14:28:26;;;;;;;0.15;0.13;;;5.90;99.90;;;;;;5161480;27;20095;-80
2022/12/27 14:31:29;;;;;;;0.63;0.63;;;5.80;99.90;;;;;;5148286;27;20051;-80
2022/12/27 14:34:07;;;;;;;0.28;0.28;;;5.80;99.90;;;;;;5159822;27;20034;-80
2022/12/27 14:37:02;;;;;;;2.80;0.90;;;5.70;99.90;;;;;;5150727;27;20039;-80
2022/12/27 14:39:46;;;;;;;2.30;1.00;;;5.80;99.90;;;;;;5159568;27;20126;-80
2022/12/27 14:42:49;;;;;;;0.75;0.75;;;5.80;99.90;;;;;;5159778;27;20054;-80
2022/12/27 14:45:34;;;;;;;7.47;1.95;;;5.80;99.90;;;;;;5160215;27;20125;-81
2022/12/27 14:48:29;;;;;;;0.70;0.70;;;5.70;99.90;;;;;;5160259;27;20358;-80
2022/12/27 14:51:13;;;;;;;0.10;0.10;;;5.60;99.90;;;;;;5159870;27;20085;-80
2022/12/27 14:53:51;;;;;;;3.47;2.28;;;5.60;99.90;;;;;;5159169;27;20042;-81
2022/12/27 14:56:30;;;;;;;0.15;0.15;;;5.70;99.90;;;;;;5159713;27;20078;-80
2022/12/27 14:59:37;;;;;;;1.10;1.00;;;5.80;99.90;;;;;;5161974;27;20139;-80
2022/12/27 15:02:14;;;;;;;0.13;0.13;;;5.80;99.90;;;;;;5149213;27;20042;-80
2022/12/27 15:04:49;;;;;;;0.40;0.40;;;5.80;99.90;;;;;;5163919;27;20505;-80
2022/12/27 15:08:05;;;;;;;0.00;0.00;;;5.80;99.90;;;;;;5161995;27;20462;-80
2022/12/27 15:10:49;;;;;;;0.52;0.30;;;5.70;99.90;;;;;;5058357;28;20072;-81
2022/12/27 15:13:17;;;;;;;0.03;0.03;;;5.60;99.90;;;;;;5059541;28;20060;-81
2022/12/27 15:16:05;;;;;;;0.10;0.10;;;5.30;99.90;;;;;;5108331;27;20058;-80